sensor_id;sensor_type;location;lat;lon;timestamp;temperature;humidity
50606;DHT22;36557;53.572;10.170;2024-02-04T00:01:44;6.30;99.90
50606;DHT22;36557;53.572;10.170;2024-02-04T00:04:10;6.30;99.90
50606;DHT22;36557;53.572;10.170;2024-02-04T00:06:35;6.20;99.90
50606;DHT22;36557;53.572;10.170;2024-02-04T00:09:01;6.20;99.90
50606;DHT22;36557;53.572;10.170;2024-02-04T00:11:29;6.10;99.90
50606;DHT22;36557;53.572;10.170;2024-02-04T00:13:54;6.20;99.90
50606;DHT22;36557;53.572;10.170;2024-02-04T00:16:20;6.20;99.90
50606;DHT22;36557;53.572;10.170;2024-02-04T00:18:46;6.10;99.90
50606;DHT22;36557;53.572;10.170;2024-02-04T00:21:12;6.10;99.90
50606;DHT22;36557;53.572;10.170;2024-02-04T00:23:37;6.10;99.90
50606;DHT22;36557;53.572;10.170;2024-02-04T00:26:03;6.10;99.90
50606;DHT22;36557;53.572;10.170;2024-02-04T00:28:29;6.10;99.90
50606;DHT22;36557;53.572;10.170;2024-02-04T00:30:54;6.10;99.90
50606;DHT22;36557;53.572;10.170;2024-02-04T00:33:24;6.10;99.90
50606;DHT22;36557;53.572;10.170;2024-02-04T00:35:50;6.10;99.90
50606;DHT22;36557;53.572;10.170;2024-02-04T00:38:16;6.10;99.90
50606;DHT22;36557;53.572;10.170;2024-02-04T00:40:42;6.10;99.90
50606;DHT22;36557;53.572;10.170;2024-02-04T00:43:07;6.10;99.90
50606;DHT22;36557;53.572;10.170;2024-02-04T00:45:33;6.00;99.90
50606;DHT22;36557;53.572;10.170;2024-02-04T00:47:59;6.00;99.90
50606;DHT22;36557;53.572;10.170;2024-02-04T00:50:24;6.00;99.90
50606;DHT22;36557;53.572;10.170;2024-02-04T00:52:50;5.90;99.90
50606;DHT22;36557;53.572;10.170;2024-02-04T00:55:19;6.00;99.90
50606;DHT22;36557;53.572;10.170;2024-02-04T00:57:45;5.90;99.90
50606;DHT22;36557;53.572;10.170;2024-02-04T01:00:11;5.90;99.90
50606;DHT22;36557;53.572;10.170;2024-02-04T01:02:38;5.90;99.90
50606;DHT22;36557;53.572;10.170;2024-02-04T01:05:05;5.80;99.90
50606;DHT22;36557;53.572;10.170;2024-02-04T01:07:31;5.80;99.90
50606;DHT22;36557;53.572;10.170;2024-02-04T01:09:56;5.70;99.90
50606;DHT22;36557;53.572;10.170;2024-02-04T01:12:22;5.70;99.90
50606;DHT22;36557;53.572;10.170;2024-02-04T01:14:48;5.70;99.90
50606;DHT22;36557;53.572;10.170;2024-02-04T01:17:13;5.80;99.90
50606;DHT22;36557;53.572;10.170;2024-02-04T01:19:39;5.90;99.90
50606;DHT22;36557;53.572;10.170;2024-02-04T01:22:05;5.90;99.90
50606;DHT22;36557;53.572;10.170;2024-02-04T01:24:31;6.00;99.90
50606;DHT22;36557;53.572;10.170;2024-02-04T01:26:57;6.00;99.90
50606;DHT22;36557;53.572;10.170;2024-02-04T01:29:23;6.10;99.90
50606;DHT22;36557;53.572;10.170;2024-02-04T01:31:48;6.10;99.90
50606;DHT22;36557;53.572;10.170;2024-02-04T01:34:14;6.20;99.90
50606;DHT22;36557;53.572;10.170;2024-02-04T01:36:40;6.10;99.90
50606;DHT22;36557;53.572;10.170;2024-02-04T01:39:05;6.20;99.90
50606;DHT22;36557;53.572;10.170;2024-02-04T01:41:32;6.20;99.90
50606;DHT22;36557;53.572;10.170;2024-02-04T01:43:58;6.20;99.90
50606;DHT22;36557;53.572;10.170;2024-02-04T01:46:24;6.30;99.90
50606;DHT22;36557;53.572;10.170;2024-02-04T01:48:50;6.30;99.90
50606;DHT22;36557;53.572;10.170;2024-02-04T01:51:17;6.30;99.90
50606;DHT22;36557;53.572;10.170;2024-02-04T01:53:45;6.30;99.90
50606;DHT22;36557;53.572;10.170;2024-02-04T01:56:13;6.30;99.90
50606;DHT22;36557;53.572;10.170;2024-02-04T01:58:39;6.30;99.90
50606;DHT22;36557;53.572;10.170;2024-02-04T02:01:05;6.40;99.90
50606;DHT22;36557;53.572;10.170;2024-02-04T02:03:31;6.40;99.90
50606;DHT22;36557;53.572;10.170;2024-02-04T02:05:57;6.40;99.90
50606;DHT22;36557;53.572;10.170;2024-02-04T02:08:23;6.40;99.90
50606;DHT22;36557;53.572;10.170;2024-02-04T02:10:51;6.40;99.90
50606;DHT22;36557;53.572;10.170;2024-02-04T02:13:29;6.50;99.90
50606;DHT22;36557;53.572;10.170;2024-02-04T02:16:24;6.50;99.90
50606;DHT22;36557;53.572;10.170;2024-02-04T02:19:03;6.50;99.90
50606;DHT22;36557;53.572;10.170;2024-02-04T02:24:34;6.50;99.90
50606;DHT22;36557;53.572;10.170;2024-02-04T02:27:01;6.50;99.90
50606;DHT22;36557;53.572;10.170;2024-02-04T02:29:27;6.50;99.90
50606;DHT22;36557;53.572;10.170;2024-02-04T02:31:53;6.50;99.90
50606;DHT22;36557;53.572;10.170;2024-02-04T02:34:18;6.40;99.90
50606;DHT22;36557;53.572;10.170;2024-02-04T02:36:52;6.50;99.90
50606;DHT22;36557;53.572;10.170;2024-02-04T02:39:34;6.50;99.90
50606;DHT22;36557;53.572;10.170;2024-02-04T02:42:04;6.50;99.90
50606;DHT22;36557;53.572;10.170;2024-02-04T02:44:30;6.50;99.90
50606;DHT22;36557;53.572;10.170;2024-02-04T02:46:58;6.40;99.90
50606;DHT22;36557;53.572;10.170;2024-02-04T02:49:26;6.40;99.90
50606;DHT22;36557;53.572;10.170;2024-02-04T02:51:52;6.30;99.90
50606;DHT22;36557;53.572;10.170;2024-02-04T02:54:18;6.30;99.90
50606;DHT22;36557;53.572;10.170;2024-02-04T02:56:44;6.30;99.90
50606;DHT22;36557;53.572;10.170;2024-02-04T02:59:09;6.30;99.90
50606;DHT22;36557;53.572;10.170;2024-02-04T03:01:39;6.30;99.90
50606;DHT22;36557;53.572;10.170;2024-02-04T03:04:05;6.30;99.90
50606;DHT22;36557;53.572;10.170;2024-02-04T03:06:30;6.30;99.90
50606;DHT22;36557;53.572;10.170;2024-02-04T03:08:56;6.30;99.90
50606;DHT22;36557;53.572;10.170;2024-02-04T03:11:22;6.40;99.90
50606;DHT22;36557;53.572;10.170;2024-02-04T03:13:48;6.40;99.90
50606;DHT22;36557;53.572;10.170;2024-02-04T03:16:13;6.40;99.90
50606;DHT22;36557;53.572;10.170;2024-02-04T03:18:43;6.40;99.90
50606;DHT22;36557;53.572;10.170;2024-02-04T03:21:13;6.30;99.90
50606;DHT22;36557;53.572;10.170;2024-02-04T03:23:39;6.30;99.90
50606;DHT22;36557;53.572;10.170;2024-02-04T03:26:05;6.40;99.90
50606;DHT22;36557;53.572;10.170;2024-02-04T03:28:30;6.40;99.90
50606;DHT22;36557;53.572;10.170;2024-02-04T03:30:56;6.30;99.90
50606;DHT22;36557;53.572;10.170;2024-02-04T03:33:22;6.40;99.90
50606;DHT22;36557;53.572;10.170;2024-02-04T03:35:47;6.30;99.90
50606;DHT22;36557;53.572;10.170;2024-02-04T03:38:13;6.30;99.90
50606;DHT22;36557;53.572;10.170;2024-02-04T03:40:39;6.40;99.90
50606;DHT22;36557;53.572;10.170;2024-02-04T03:43:08;6.30;99.90
50606;DHT22;36557;53.572;10.170;2024-02-04T03:45:35;6.30;99.90
50606;DHT22;36557;53.572;10.170;2024-02-04T03:48:01;6.20;99.90
50606;DHT22;36557;53.572;10.170;2024-02-04T03:50:27;6.20;99.90
50606;DHT22;36557;53.572;10.170;2024-02-04T03:52:53;6.20;99.90
50606;DHT22;36557;53.572;10.170;2024-02-04T03:55:19;6.20;99.90
50606;DHT22;36557;53.572;10.170;2024-02-04T03:57:45;6.20;99.90
50606;DHT22;36557;53.572;10.170;2024-02-04T04:00:11;6.10;99.90
50606;DHT22;36557;53.572;10.170;2024-02-04T04:02:37;6.10;99.90
50606;DHT22;36557;53.572;10.170;2024-02-04T04:05:03;6.10;99.90
50606;DHT22;36557;53.572;10.170;2024-02-04T04:07:28;6.10;99.90
50606;DHT22;36557;53.572;10.170;2024-02-04T04:09:54;6.10;99.90
50606;DHT22;36557;53.572;10.170;2024-02-04T04:12:20;6.10;99.90
50606;DHT22;36557;53.572;10.170;2024-02-04T04:14:45;6.10;99.90
50606;DHT22;36557;53.572;10.170;2024-02-04T04:17:11;6.00;99.90
50606;DHT22;36557;53.572;10.170;2024-02-04T04:19:38;6.00;99.90
50606;DHT22;36557;53.572;10.170;2024-02-04T04:22:04;6.00;99.90
50606;DHT22;36557;53.572;10.170;2024-02-04T04:24:30;6.00;99.90
50606;DHT22;36557;53.572;10.170;2024-02-04T04:26:56;6.10;99.90
50606;DHT22;36557;53.572;10.170;2024-02-04T04:29:21;6.10;99.90
50606;DHT22;36557;53.572;10.170;2024-02-04T04:31:47;6.00;99.90
50606;DHT22;36557;53.572;10.170;2024-02-04T04:34:13;6.00;99.90
50606;DHT22;36557;53.572;10.170;2024-02-04T04:36:39;6.10;99.90
50606;DHT22;36557;53.572;10.170;2024-02-04T04:39:05;6.00;99.90
50606;DHT22;36557;53.572;10.170;2024-02-04T04:41:30;6.00;99.90
50606;DHT22;36557;53.572;10.170;2024-02-04T04:43:56;5.90;99.90
50606;DHT22;36557;53.572;10.170;2024-02-04T04:46:22;6.00;99.90
50606;DHT22;36557;53.572;10.170;2024-02-04T04:48:47;6.00;99.90
50606;DHT22;36557;53.572;10.170;2024-02-04T04:51:13;6.00;99.90
50606;DHT22;36557;53.572;10.170;2024-02-04T04:53:39;5.90;99.90
50606;DHT22;36557;53.572;10.170;2024-02-04T04:56:05;5.90;99.90
50606;DHT22;36557;53.572;10.170;2024-02-04T04:58:31;6.00;99.90
50606;DHT22;36557;53.572;10.170;2024-02-04T05:00:56;5.90;99.90
50606;DHT22;36557;53.572;10.170;2024-02-04T05:03:22;6.00;99.90
50606;DHT22;36557;53.572;10.170;2024-02-04T05:05:48;5.90;99.90
50606;DHT22;36557;53.572;10.170;2024-02-04T05:08:14;6.00;99.90
50606;DHT22;36557;53.572;10.170;2024-02-04T05:10:41;5.90;99.90
50606;DHT22;36557;53.572;10.170;2024-02-04T05:13:07;5.90;99.90
50606;DHT22;36557;53.572;10.170;2024-02-04T05:15:33;5.90;99.90
50606;DHT22;36557;53.572;10.170;2024-02-04T05:18:01;5.90;99.90
50606;DHT22;36557;53.572;10.170;2024-02-04T05:20:27;5.90;99.90
50606;DHT22;36557;53.572;10.170;2024-02-04T05:22:54;5.90;99.90
50606;DHT22;36557;53.572;10.170;2024-02-04T05:25:20;5.90;99.90
50606;DHT22;36557;53.572;10.170;2024-02-04T05:27:46;5.90;99.90
50606;DHT22;36557;53.572;10.170;2024-02-04T05:30:12;5.80;99.90
50606;DHT22;36557;53.572;10.170;2024-02-04T05:32:38;5.90;99.90
50606;DHT22;36557;53.572;10.170;2024-02-04T05:35:04;5.90;99.90
50606;DHT22;36557;53.572;10.170;2024-02-04T05:37:30;5.90;99.90
50606;DHT22;36557;53.572;10.170;2024-02-04T05:39:56;5.90;99.90
50606;DHT22;36557;53.572;10.170;2024-02-04T05:42:21;5.90;99.90
50606;DHT22;36557;53.572;10.170;2024-02-04T05:44:47;5.80;99.90
50606;DHT22;36557;53.572;10.170;2024-02-04T05:47:13;5.80;99.90
50606;DHT22;36557;53.572;10.170;2024-02-04T05:49:38;5.80;99.90
50606;DHT22;36557;53.572;10.170;2024-02-04T05:52:04;5.80;99.90
50606;DHT22;36557;53.572;10.170;2024-02-04T05:54:30;5.90;99.90
50606;DHT22;36557;53.572;10.170;2024-02-04T05:56:56;5.80;99.90
50606;DHT22;36557;53.572;10.170;2024-02-04T05:59:22;5.80;99.90
50606;DHT22;36557;53.572;10.170;2024-02-04T06:01:47;5.80;99.90
50606;DHT22;36557;53.572;10.170;2024-02-04T06:04:13;5.90;99.90
50606;DHT22;36557;53.572;10.170;2024-02-04T06:06:39;5.80;99.90
50606;DHT22;36557;53.572;10.170;2024-02-04T06:09:04;5.80;99.90
50606;DHT22;36557;53.572;10.170;2024-02-04T06:11:30;5.90;99.90
50606;DHT22;36557;53.572;10.170;2024-02-04T06:13:56;5.90;99.90
50606;DHT22;36557;53.572;10.170;2024-02-04T06:16:21;5.90;99.90
50606;DHT22;36557;53.572;10.170;2024-02-04T06:18:47;5.90;99.90
50606;DHT22;36557;53.572;10.170;2024-02-04T06:21:13;6.00;99.90
50606;DHT22;36557;53.572;10.170;2024-02-04T06:23:39;5.90;99.90
50606;DHT22;36557;53.572;10.170;2024-02-04T06:26:05;6.00;99.90
50606;DHT22;36557;53.572;10.170;2024-02-04T06:28:31;6.00;99.90
50606;DHT22;36557;53.572;10.170;2024-02-04T06:30:57;5.90;99.90
50606;DHT22;36557;53.572;10.170;2024-02-04T06:33:22;5.90;99.90
50606;DHT22;36557;53.572;10.170;2024-02-04T06:35:50;5.90;99.90
50606;DHT22;36557;53.572;10.170;2024-02-04T06:38:16;5.90;99.90
50606;DHT22;36557;53.572;10.170;2024-02-04T06:40:42;6.00;99.90
50606;DHT22;36557;53.572;10.170;2024-02-04T06:43:07;6.00;99.90
50606;DHT22;36557;53.572;10.170;2024-02-04T06:45:33;6.00;99.90
50606;DHT22;36557;53.572;10.170;2024-02-04T06:48:00;5.90;99.90
50606;DHT22;36557;53.572;10.170;2024-02-04T06:50:25;5.90;99.90
50606;DHT22;36557;53.572;10.170;2024-02-04T06:52:51;5.90;99.90
50606;DHT22;36557;53.572;10.170;2024-02-04T06:55:17;5.90;99.90
50606;DHT22;36557;53.572;10.170;2024-02-04T06:57:43;5.90;99.90
50606;DHT22;36557;53.572;10.170;2024-02-04T07:00:09;5.90;99.90
50606;DHT22;36557;53.572;10.170;2024-02-04T07:02:35;5.90;99.90
50606;DHT22;36557;53.572;10.170;2024-02-04T07:05:00;6.00;99.90
50606;DHT22;36557;53.572;10.170;2024-02-04T07:07:26;5.90;99.90
50606;DHT22;36557;53.572;10.170;2024-02-04T07:09:52;5.90;99.90
50606;DHT22;36557;53.572;10.170;2024-02-04T07:12:18;5.90;99.90
50606;DHT22;36557;53.572;10.170;2024-02-04T07:14:43;5.90;99.90
50606;DHT22;36557;53.572;10.170;2024-02-04T07:17:09;5.90;99.90
50606;DHT22;36557;53.572;10.170;2024-02-04T07:19:37;5.90;99.90
50606;DHT22;36557;53.572;10.170;2024-02-04T07:22:03;5.90;99.90
50606;DHT22;36557;53.572;10.170;2024-02-04T07:24:29;5.90;99.90
50606;DHT22;36557;53.572;10.170;2024-02-04T07:26:54;5.90;99.90
50606;DHT22;36557;53.572;10.170;2024-02-04T07:29:21;6.00;99.90
50606;DHT22;36557;53.572;10.170;2024-02-04T07:31:46;6.00;99.90
50606;DHT22;36557;53.572;10.170;2024-02-04T07:34:12;6.00;99.90
50606;DHT22;36557;53.572;10.170;2024-02-04T07:36:38;6.00;99.90
50606;DHT22;36557;53.572;10.170;2024-02-04T07:39:04;6.00;99.90
50606;DHT22;36557;53.572;10.170;2024-02-04T07:41:30;6.00;99.90
50606;DHT22;36557;53.572;10.170;2024-02-04T07:43:57;6.00;99.90
50606;DHT22;36557;53.572;10.170;2024-02-04T07:46:23;6.10;99.90
50606;DHT22;36557;53.572;10.170;2024-02-04T07:48:48;6.10;99.90
50606;DHT22;36557;53.572;10.170;2024-02-04T07:51:14;6.20;99.90
50606;DHT22;36557;53.572;10.170;2024-02-04T07:53:40;6.10;99.90
50606;DHT22;36557;53.572;10.170;2024-02-04T07:56:06;6.20;99.90
50606;DHT22;36557;53.572;10.170;2024-02-04T07:58:36;6.20;99.90
50606;DHT22;36557;53.572;10.170;2024-02-04T08:01:02;6.20;99.90
50606;DHT22;36557;53.572;10.170;2024-02-04T08:03:27;6.20;99.90
50606;DHT22;36557;53.572;10.170;2024-02-04T08:05:53;6.20;99.90
50606;DHT22;36557;53.572;10.170;2024-02-04T08:08:19;6.20;99.90
50606;DHT22;36557;53.572;10.170;2024-02-04T08:10:44;6.20;99.90
50606;DHT22;36557;53.572;10.170;2024-02-04T08:13:10;6.30;99.90
50606;DHT22;36557;53.572;10.170;2024-02-04T08:15:36;6.30;99.90
50606;DHT22;36557;53.572;10.170;2024-02-04T08:18:02;6.30;99.90
50606;DHT22;36557;53.572;10.170;2024-02-04T08:20:28;6.40;99.90
50606;DHT22;36557;53.572;10.170;2024-02-04T08:22:54;6.40;99.90
50606;DHT22;36557;53.572;10.170;2024-02-04T08:25:20;6.50;99.90
50606;DHT22;36557;53.572;10.170;2024-02-04T08:27:46;6.50;99.90
50606;DHT22;36557;53.572;10.170;2024-02-04T08:30:12;6.50;99.90
50606;DHT22;36557;53.572;10.170;2024-02-04T08:32:38;6.50;99.90
50606;DHT22;36557;53.572;10.170;2024-02-04T08:35:05;6.60;99.90
50606;DHT22;36557;53.572;10.170;2024-02-04T08:37:32;6.60;99.90
50606;DHT22;36557;53.572;10.170;2024-02-04T08:39:58;6.60;99.90
50606;DHT22;36557;53.572;10.170;2024-02-04T08:42:24;6.60;99.90
50606;DHT22;36557;53.572;10.170;2024-02-04T08:44:50;6.60;99.90
50606;DHT22;36557;53.572;10.170;2024-02-04T08:47:16;6.70;99.90
50606;DHT22;36557;53.572;10.170;2024-02-04T08:49:42;6.70;99.90
50606;DHT22;36557;53.572;10.170;2024-02-04T08:52:08;6.70;99.90
50606;DHT22;36557;53.572;10.170;2024-02-04T08:54:34;6.80;99.90
50606;DHT22;36557;53.572;10.170;2024-02-04T08:57:00;6.80;99.90
50606;DHT22;36557;53.572;10.170;2024-02-04T08:59:25;6.80;99.90
50606;DHT22;36557;53.572;10.170;2024-02-04T09:01:51;6.80;99.90
50606;DHT22;36557;53.572;10.170;2024-02-04T09:04:16;6.90;99.90
50606;DHT22;36557;53.572;10.170;2024-02-04T09:06:42;6.90;99.90
50606;DHT22;36557;53.572;10.170;2024-02-04T09:09:08;6.90;99.90
50606;DHT22;36557;53.572;10.170;2024-02-04T09:11:34;6.90;99.90
50606;DHT22;36557;53.572;10.170;2024-02-04T09:14:00;6.90;99.90
50606;DHT22;36557;53.572;10.170;2024-02-04T09:16:26;6.90;99.90
50606;DHT22;36557;53.572;10.170;2024-02-04T09:18:52;7.00;99.90
50606;DHT22;36557;53.572;10.170;2024-02-04T09:21:17;6.90;99.90
50606;DHT22;36557;53.572;10.170;2024-02-04T09:23:44;7.00;99.90
50606;DHT22;36557;53.572;10.170;2024-02-04T09:26:11;7.00;99.90
50606;DHT22;36557;53.572;10.170;2024-02-04T09:28:36;7.00;99.90
50606;DHT22;36557;53.572;10.170;2024-02-04T09:31:07;7.00;99.90
50606;DHT22;36557;53.572;10.170;2024-02-04T09:33:35;7.00;99.90
50606;DHT22;36557;53.572;10.170;2024-02-04T09:36:04;7.00;99.90
50606;DHT22;36557;53.572;10.170;2024-02-04T09:38:30;7.00;99.90
50606;DHT22;36557;53.572;10.170;2024-02-04T09:40:56;7.00;99.90
50606;DHT22;36557;53.572;10.170;2024-02-04T09:43:22;7.00;99.90
50606;DHT22;36557;53.572;10.170;2024-02-04T09:45:48;7.10;99.90
50606;DHT22;36557;53.572;10.170;2024-02-04T09:48:17;7.10;99.90
50606;DHT22;36557;53.572;10.170;2024-02-04T09:50:46;7.10;99.90
50606;DHT22;36557;53.572;10.170;2024-02-04T09:53:14;7.30;99.90
50606;DHT22;36557;53.572;10.170;2024-02-04T09:55:40;7.30;99.90
50606;DHT22;36557;53.572;10.170;2024-02-04T09:58:07;7.30;99.90
50606;DHT22;36557;53.572;10.170;2024-02-04T10:00:33;7.40;99.90
50606;DHT22;36557;53.572;10.170;2024-02-04T10:03:00;7.30;99.90
50606;DHT22;36557;53.572;10.170;2024-02-04T10:05:26;7.40;99.90
50606;DHT22;36557;53.572;10.170;2024-02-04T10:07:52;7.30;99.90
50606;DHT22;36557;53.572;10.170;2024-02-04T10:10:18;7.30;99.90
50606;DHT22;36557;53.572;10.170;2024-02-04T10:12:44;7.30;99.90
50606;DHT22;36557;53.572;10.170;2024-02-04T10:15:10;7.40;99.90
50606;DHT22;36557;53.572;10.170;2024-02-04T10:17:36;7.40;99.90
50606;DHT22;36557;53.572;10.170;2024-02-04T10:20:02;7.30;99.90
50606;DHT22;36557;53.572;10.170;2024-02-04T10:22:28;7.30;99.90
50606;DHT22;36557;53.572;10.170;2024-02-04T10:25:04;7.30;99.90
50606;DHT22;36557;53.572;10.170;2024-02-04T10:27:31;7.30;99.90
50606;DHT22;36557;53.572;10.170;2024-02-04T10:29:57;7.30;99.90
50606;DHT22;36557;53.572;10.170;2024-02-04T10:32:22;7.30;99.90
50606;DHT22;36557;53.572;10.170;2024-02-04T10:34:48;7.30;99.90
50606;DHT22;36557;53.572;10.170;2024-02-04T10:37:14;7.30;99.90
50606;DHT22;36557;53.572;10.170;2024-02-04T10:39:39;7.30;99.90
50606;DHT22;36557;53.572;10.170;2024-02-04T10:42:07;7.30;99.90
50606;DHT22;36557;53.572;10.170;2024-02-04T10:44:36;7.30;99.90
50606;DHT22;36557;53.572;10.170;2024-02-04T10:47:05;7.40;99.90
50606;DHT22;36557;53.572;10.170;2024-02-04T10:49:34;7.40;99.90
50606;DHT22;36557;53.572;10.170;2024-02-04T10:52:00;7.40;99.90
50606;DHT22;36557;53.572;10.170;2024-02-04T10:54:27;7.40;99.90
50606;DHT22;36557;53.572;10.170;2024-02-04T10:57:05;7.50;99.90
50606;DHT22;36557;53.572;10.170;2024-02-04T10:59:31;7.50;99.90
50606;DHT22;36557;53.572;10.170;2024-02-04T11:01:58;7.60;99.90
50606;DHT22;36557;53.572;10.170;2024-02-04T11:04:24;7.60;99.90
50606;DHT22;36557;53.572;10.170;2024-02-04T11:06:50;7.60;99.90
50606;DHT22;36557;53.572;10.170;2024-02-04T11:09:18;7.60;99.90
50606;DHT22;36557;53.572;10.170;2024-02-04T11:11:45;7.60;99.90
50606;DHT22;36557;53.572;10.170;2024-02-04T11:14:15;7.60;99.90
50606;DHT22;36557;53.572;10.170;2024-02-04T11:19:42;7.70;99.90
50606;DHT22;36557;53.572;10.170;2024-02-04T11:22:18;7.70;99.90
50606;DHT22;36557;53.572;10.170;2024-02-04T11:27:32;7.80;99.90
50606;DHT22;36557;53.572;10.170;2024-02-04T11:29:58;7.80;99.90
50606;DHT22;36557;53.572;10.170;2024-02-04T11:32:24;7.80;99.90
50606;DHT22;36557;53.572;10.170;2024-02-04T11:34:50;7.80;99.90
50606;DHT22;36557;53.572;10.170;2024-02-04T11:37:18;7.80;99.90
50606;DHT22;36557;53.572;10.170;2024-02-04T11:39:54;7.80;99.90
50606;DHT22;36557;53.572;10.170;2024-02-04T11:42:23;7.90;99.90
50606;DHT22;36557;53.572;10.170;2024-02-04T11:44:50;7.90;99.90
50606;DHT22;36557;53.572;10.170;2024-02-04T11:47:26;8.00;99.90
50606;DHT22;36557;53.572;10.170;2024-02-04T11:49:55;8.00;99.90
50606;DHT22;36557;53.572;10.170;2024-02-04T11:52:21;8.00;99.90
50606;DHT22;36557;53.572;10.170;2024-02-04T11:54:47;8.00;99.90
50606;DHT22;36557;53.572;10.170;2024-02-04T11:57:14;8.00;99.90
50606;DHT22;36557;53.572;10.170;2024-02-04T11:59:42;8.00;99.90
50606;DHT22;36557;53.572;10.170;2024-02-04T12:02:07;8.00;99.90
50606;DHT22;36557;53.572;10.170;2024-02-04T12:04:34;8.00;99.90
50606;DHT22;36557;53.572;10.170;2024-02-04T12:07:00;8.10;99.90
50606;DHT22;36557;53.572;10.170;2024-02-04T12:09:26;8.10;99.90
50606;DHT22;36557;53.572;10.170;2024-02-04T12:11:54;8.10;99.90
50606;DHT22;36557;53.572;10.170;2024-02-04T12:14:21;8.10;99.90
50606;DHT22;36557;53.572;10.170;2024-02-04T12:16:47;8.20;99.90
50606;DHT22;36557;53.572;10.170;2024-02-04T12:19:13;8.20;99.90
50606;DHT22;36557;53.572;10.170;2024-02-04T12:21:39;8.20;99.90
50606;DHT22;36557;53.572;10.170;2024-02-04T12:24:05;8.20;99.90
50606;DHT22;36557;53.572;10.170;2024-02-04T12:26:31;8.20;99.90
50606;DHT22;36557;53.572;10.170;2024-02-04T12:28:56;8.30;99.90
50606;DHT22;36557;53.572;10.170;2024-02-04T12:31:26;8.30;99.90
50606;DHT22;36557;53.572;10.170;2024-02-04T12:33:58;8.30;99.90
50606;DHT22;36557;53.572;10.170;2024-02-04T12:36:29;8.30;99.90
50606;DHT22;36557;53.572;10.170;2024-02-04T12:38:57;8.30;99.90
50606;DHT22;36557;53.572;10.170;2024-02-04T12:41:23;8.30;99.90
50606;DHT22;36557;53.572;10.170;2024-02-04T12:43:53;8.30;99.90
50606;DHT22;36557;53.572;10.170;2024-02-04T12:46:20;8.30;99.90
50606;DHT22;36557;53.572;10.170;2024-02-04T12:48:51;8.30;99.90
50606;DHT22;36557;53.572;10.170;2024-02-04T12:51:30;8.40;99.90
50606;DHT22;36557;53.572;10.170;2024-02-04T12:54:06;8.40;99.90
50606;DHT22;36557;53.572;10.170;2024-02-04T12:56:49;8.40;99.90
50606;DHT22;36557;53.572;10.170;2024-02-04T13:02:01;8.40;99.90
50606;DHT22;36557;53.572;10.170;2024-02-04T13:04:33;8.40;99.90
50606;DHT22;36557;53.572;10.170;2024-02-04T13:06:59;8.40;99.90
50606;DHT22;36557;53.572;10.170;2024-02-04T13:09:25;8.30;99.90
50606;DHT22;36557;53.572;10.170;2024-02-04T13:11:51;8.40;99.90
50606;DHT22;36557;53.572;10.170;2024-02-04T13:14:17;8.30;99.90
50606;DHT22;36557;53.572;10.170;2024-02-04T13:16:43;8.30;99.90
50606;DHT22;36557;53.572;10.170;2024-02-04T13:19:08;8.30;99.90
50606;DHT22;36557;53.572;10.170;2024-02-04T13:21:34;8.30;99.90
50606;DHT22;36557;53.572;10.170;2024-02-04T13:24:00;8.30;99.90
50606;DHT22;36557;53.572;10.170;2024-02-04T13:26:25;8.30;99.90
50606;DHT22;36557;53.572;10.170;2024-02-04T13:28:51;8.40;99.90
50606;DHT22;36557;53.572;10.170;2024-02-04T13:31:17;8.40;99.90
50606;DHT22;36557;53.572;10.170;2024-02-04T13:33:43;8.40;99.90
50606;DHT22;36557;53.572;10.170;2024-02-04T13:36:09;8.40;99.90
50606;DHT22;36557;53.572;10.170;2024-02-04T13:38:35;8.40;99.90
50606;DHT22;36557;53.572;10.170;2024-02-04T13:41:04;8.40;99.90
50606;DHT22;36557;53.572;10.170;2024-02-04T13:43:32;8.40;99.90
50606;DHT22;36557;53.572;10.170;2024-02-04T13:45:59;8.40;99.90
50606;DHT22;36557;53.572;10.170;2024-02-04T13:48:25;8.40;99.90
50606;DHT22;36557;53.572;10.170;2024-02-04T13:50:52;8.40;99.90
50606;DHT22;36557;53.572;10.170;2024-02-04T13:53:20;8.40;99.90
50606;DHT22;36557;53.572;10.170;2024-02-04T13:55:46;8.40;99.90
50606;DHT22;36557;53.572;10.170;2024-02-04T13:58:12;8.40;99.90
50606;DHT22;36557;53.572;10.170;2024-02-04T14:00:39;8.40;99.90
50606;DHT22;36557;53.572;10.170;2024-02-04T14:03:05;8.40;99.90
50606;DHT22;36557;53.572;10.170;2024-02-04T14:05:32;8.40;99.90
50606;DHT22;36557;53.572;10.170;2024-02-04T14:07:58;8.40;99.90
50606;DHT22;36557;53.572;10.170;2024-02-04T14:10:24;8.30;99.90
50606;DHT22;36557;53.572;10.170;2024-02-04T14:12:50;8.30;99.90
50606;DHT22;36557;53.572;10.170;2024-02-04T14:15:15;8.30;99.90
50606;DHT22;36557;53.572;10.170;2024-02-04T14:17:42;8.30;99.90
50606;DHT22;36557;53.572;10.170;2024-02-04T14:20:08;8.30;99.90
50606;DHT22;36557;53.572;10.170;2024-02-04T14:22:34;8.30;99.90
50606;DHT22;36557;53.572;10.170;2024-02-04T14:25:00;8.30;99.90
50606;DHT22;36557;53.572;10.170;2024-02-04T14:27:26;8.30;99.90
50606;DHT22;36557;53.572;10.170;2024-02-04T14:29:52;8.30;99.90
50606;DHT22;36557;53.572;10.170;2024-02-04T14:32:17;8.30;99.90
50606;DHT22;36557;53.572;10.170;2024-02-04T14:34:44;8.30;99.90
50606;DHT22;36557;53.572;10.170;2024-02-04T14:37:10;8.30;99.90
50606;DHT22;36557;53.572;10.170;2024-02-04T14:39:36;8.20;99.90
50606;DHT22;36557;53.572;10.170;2024-02-04T14:42:02;8.20;99.90
50606;DHT22;36557;53.572;10.170;2024-02-04T14:44:28;8.20;99.90
50606;DHT22;36557;53.572;10.170;2024-02-04T14:46:54;8.20;99.90
50606;DHT22;36557;53.572;10.170;2024-02-04T14:49:20;8.20;99.90
50606;DHT22;36557;53.572;10.170;2024-02-04T14:51:45;8.20;99.90
50606;DHT22;36557;53.572;10.170;2024-02-04T14:54:11;8.20;99.90
50606;DHT22;36557;53.572;10.170;2024-02-04T14:56:41;8.20;99.90
50606;DHT22;36557;53.572;10.170;2024-02-04T15:01:37;8.10;99.90
50606;DHT22;36557;53.572;10.170;2024-02-04T15:04:03;8.10;99.90
50606;DHT22;36557;53.572;10.170;2024-02-04T15:06:30;8.10;99.90
50606;DHT22;36557;53.572;10.170;2024-02-04T15:08:56;8.10;99.90
50606;DHT22;36557;53.572;10.170;2024-02-04T15:11:23;8.10;99.90
50606;DHT22;36557;53.572;10.170;2024-02-04T15:13:49;8.10;99.90
50606;DHT22;36557;53.572;10.170;2024-02-04T15:16:15;8.10;99.90
50606;DHT22;36557;53.572;10.170;2024-02-04T15:18:41;8.10;99.90
50606;DHT22;36557;53.572;10.170;2024-02-04T15:21:07;8.10;99.90
50606;DHT22;36557;53.572;10.170;2024-02-04T15:23:33;8.10;99.90
50606;DHT22;36557;53.572;10.170;2024-02-04T15:26:01;8.10;99.90
50606;DHT22;36557;53.572;10.170;2024-02-04T15:28:27;8.10;99.90
50606;DHT22;36557;53.572;10.170;2024-02-04T15:30:53;8.00;99.90
50606;DHT22;36557;53.572;10.170;2024-02-04T15:33:21;8.00;99.90
50606;DHT22;36557;53.572;10.170;2024-02-04T15:35:47;8.00;99.90
50606;DHT22;36557;53.572;10.170;2024-02-04T15:38:12;7.90;99.90
50606;DHT22;36557;53.572;10.170;2024-02-04T15:40:38;7.80;99.90